Time;durP1;ratioP1;P1;durP2;ratioP2;P2;SDS_P1;SDS_P2;PMS_P1;PMS_P2;Temp;Humidity;BMP_temperature;BMP_pressure;BME280_temperature;BME280_humidity;BME280_pressure;Samples;Min_cycle;Max_cycle;Signal;HPM_P1;HPM_P2
2022/11/12 00:00:59;;;;;;;25.70;13.82;;;;;;;4.03;98.98;103043.81;5035769;28;20068;-74
2022/11/12 00:03:43;;;;;;;28.90;15.90;;;;;;;4.06;99.93;103038.41;5028311;28;20187;-74
2022/11/12 00:06:27;;;;;;;23.17;14.18;;;;;;;4.04;99.34;103040.19;5027271;28;20048;-74
2022/11/12 00:09:11;;;;;;;38.15;18.15;;;;;;;4.08;99.76;103046.47;5028411;28;20107;-74
2022/11/12 00:11:55;;;;;;;29.25;18.17;;;;;;;4.07;100.00;103050.97;5028107;28;20550;-74
2022/11/12 00:14:39;;;;;;;22.88;12.93;;;;;;;4.00;98.49;103056.41;5027406;28;20571;-74
2022/11/12 00:17:24;;;;;;;20.95;12.63;;;;;;;3.93;97.97;103055.59;5028415;28;20428;-74
2022/11/12 00:20:09;;;;;;;17.17;11.68;;;;;;;3.90;97.61;103058.28;5052036;28;20110;-74
2022/11/12 00:22:53;;;;;;;17.90;10.52;;;;;;;3.81;97.15;103058.38;5052077;28;20052;-73
2022/11/12 00:25:37;;;;;;;17.67;10.38;;;;;;;3.71;96.55;103054.88;5038329;28;20088;-74
2022/11/12 00:28:21;;;;;;;22.20;12.10;;;;;;;3.66;96.84;103056.72;5031031;28;20145;-74
2022/11/12 00:31:10;;;;;;;17.02;10.00;;;;;;;3.62;95.91;103070.19;5031407;28;20076;-74
2022/11/12 00:33:54;;;;;;;17.92;10.68;;;;;;;3.56;95.91;103072.03;5043670;28;20051;-74
2022/11/12 00:36:38;;;;;;;17.23;12.98;;;;;;;3.56;96.48;103077.41;5050868;28;20098;-74
2022/11/12 00:39:22;;;;;;;18.67;11.18;;;;;;;3.51;96.20;103065.81;5042487;28;20111;-74
2022/11/12 00:42:05;;;;;;;19.17;11.00;;;;;;;3.48;96.22;103071.19;5052251;28;20099;-74
2022/11/12 00:44:49;;;;;;;16.10;10.60;;;;;;;3.47;95.58;103071.22;5029779;28;20053;-74
2022/11/12 00:47:33;;;;;;;20.90;11.60;;;;;;;3.43;95.81;103061.38;5031031;28;20071;-74
2022/11/12 00:50:17;;;;;;;20.02;10.90;;;;;;;3.42;96.55;103062.28;5032063;28;20472;-74
2022/11/12 00:53:01;;;;;;;20.23;10.82;;;;;;;3.41;96.45;103060.50;5032880;28;20084;-74
2022/11/12 00:55:45;;;;;;;16.35;10.15;;;;;;;3.35;96.22;103058.72;5032572;28;20068;-74
2022/11/12 00:58:31;;;;;;;18.08;11.82;;;;;;;3.35;96.75;103061.41;5031662;28;20487;-74
2022/11/12 01:01:15;;;;;;;19.25;10.63;;;;;;;3.34;96.27;103051.56;5031076;28;20059;-74
2022/11/12 01:04:00;;;;;;;22.48;12.18;;;;;;;3.31;97.07;103052.50;5031670;28;20044;-74
2022/11/12 01:06:43;;;;;;;27.90;14.90;;;;;;;3.33;97.69;103060.53;5031438;28;20060;-74
2022/11/12 01:09:27;;;;;;;16.02;10.82;;;;;;;3.29;96.79;103054.28;5030694;28;20087;-74
2022/11/12 01:12:11;;;;;;;18.33;10.65;;;;;;;3.27;96.54;103060.59;5031618;28;20137;-73
2022/11/12 01:14:55;;;;;;;21.90;12.13;;;;;;;3.22;96.82;103051.66;5031432;28;20092;-74
2022/11/12 01:17:40;;;;;;;18.13;11.40;;;;;;;3.21;97.08;103055.22;5030329;28;20171;-74
2022/11/12 01:20:24;;;;;;;15.43;10.07;;;;;;;3.16;96.47;103055.25;5031136;28;20080;-74
2022/11/12 01:23:08;;;;;;;19.60;11.60;;;;;;;3.11;96.50;103051.72;5031447;28;20064;-74
2022/11/12 01:25:51;;;;;;;19.33;11.82;;;;;;;3.08;96.67;103051.75;5031635;28;20100;-74
2022/11/12 01:28:36;;;;;;;19.95;12.15;;;;;;;3.10;97.37;103054.41;5031515;28;20060;-74
2022/11/12 01:31:21;;;;;;;19.23;10.63;;;;;;;3.09;96.18;103048.16;5028719;28;20515;-74
2022/11/12 01:34:07;;;;;;;14.90;9.15;;;;;;;3.07;95.88;103048.13;5044239;28;20073;-74
2022/11/12 01:36:51;;;;;;;16.20;10.90;;;;;;;3.06;95.47;103051.75;5045947;28;20120;-74
2022/11/12 01:39:35;;;;;;;15.35;9.80;;;;;;;3.02;95.47;103041.00;5034407;28;20087;-74
2022/11/12 01:42:19;;;;;;;16.10;10.35;;;;;;;3.00;95.49;103054.47;5030944;28;20148;-74
2022/11/12 01:45:14;;;;;;;18.33;11.25;;;;;;;2.94;95.91;103049.13;5031035;28;20619;-74
2022/11/12 01:47:59;;;;;;;19.05;11.93;;;;;;;2.87;96.52;103043.78;5030304;28;20190;-75
2022/11/12 01:50:42;;;;;;;25.45;12.95;;;;;;;2.79;96.75;103031.25;5029604;28;20517;-75
2022/11/12 01:53:29;;;;;;;22.02;13.07;;;;;;;2.77;96.71;103038.47;5030022;28;20091;-74
2022/11/12 01:56:14;;;;;;;18.42;11.50;;;;;;;2.76;96.32;103039.38;5030664;28;20408;-73
2022/11/12 01:59:05;;;;;;;21.63;13.15;;;;;;;2.77;96.38;103038.47;5030286;28;20144;-74
2022/11/12 02:01:49;;;;;;;34.10;14.48;;;;;;;2.77;97.45;103038.47;5030348;28;20052;-75
2022/11/12 02:04:35;;;;;;;21.58;12.23;;;;;;;2.76;96.56;103038.47;5029536;28;20044;-75
2022/11/12 02:07:22;;;;;;;36.58;14.95;;;;;;;2.75;97.27;103032.22;5028959;28;20178;-74
2022/11/12 02:10:07;;;;;;;24.75;13.43;;;;;;;2.74;97.02;103032.19;5029766;28;20115;-75
2022/11/12 02:15:56;;;;;;;34.13;15.02;;;;;;;2.65;96.17;103040.28;5029901;28;20048;-74
2022/11/12 02:18:40;;;;;;;22.98;14.40;;;;;;;2.64;96.93;103042.09;5029751;28;20111;-74
2022/11/12 02:21:25;;;;;;;24.35;13.20;;;;;;;2.64;96.56;103035.81;5028706;28;20064;-75
2022/11/12 02:24:12;;;;;;;24.92;14.27;;;;;;;2.63;95.82;103034.06;5029936;28;20488;-73
2022/11/12 02:26:57;;;;;;;21.08;12.55;;;;;;;2.60;95.61;103039.41;5030073;28;20088;-74
2022/11/12 02:29:45;;;;;;;21.80;13.00;;;;;;;2.64;95.58;103038.50;5029228;28;20051;-74
2022/11/12 02:32:28;;;;;;;23.48;12.52;;;;;;;2.64;95.37;103038.50;5029929;28;20056;-74
2022/11/12 02:35:12;;;;;;;20.27;12.25;;;;;;;2.62;96.20;103033.16;5049269;28;20056;-74
2022/11/12 02:37:57;;;;;;;22.65;13.15;;;;;;;2.65;96.17;103029.53;5033375;28;20052;-74
2022/11/12 02:40:41;;;;;;;22.00;12.13;;;;;;;2.61;95.76;103028.69;5029458;28;20562;-74
2022/11/12 02:43:25;;;;;;;21.60;12.55;;;;;;;2.57;95.77;103032.28;5028146;28;20128;-74
2022/11/12 02:46:09;;;;;;;18.73;12.00;;;;;;;2.53;95.80;103028.72;5029600;28;20099;-74
2022/11/12 02:48:53;;;;;;;21.05;13.13;;;;;;;2.54;96.24;103021.53;5028140;28;20515;-75
2022/11/12 02:51:36;;;;;;;20.25;12.82;;;;;;;2.53;96.21;103028.72;5028526;28;20502;-74
2022/11/12 02:54:20;;;;;;;20.45;11.70;;;;;;;2.51;95.45;103021.53;5029278;28;20463;-73
2022/11/12 02:57:04;;;;;;;19.42;12.18;;;;;;;2.51;95.89;103013.47;5038812;28;20050;-73
2022/11/12 02:59:48;;;;;;;19.50;12.80;;;;;;;2.47;96.52;103012.63;5031047;28;20176;-74
2022/11/12 03:02:32;;;;;;;18.52;12.30;;;;;;;2.44;96.66;103007.25;5029494;28;20044;-73
2022/11/12 03:05:16;;;;;;;17.10;11.70;;;;;;;2.44;96.91;103017.09;5028579;28;20103;-74
2022/11/12 03:08:03;;;;;;;15.90;10.68;;;;;;;2.44;96.88;103011.75;5029066;28;20511;-75
2022/11/12 03:10:47;;;;;;;16.45;11.32;;;;;;;2.42;96.11;103017.09;5041224;28;20364;-73
2022/11/12 03:13:31;;;;;;;17.95;11.43;;;;;;;2.42;95.92;103019.78;5041380;28;20056;-74
2022/11/12 03:16:15;;;;;;;21.23;11.73;;;;;;;2.39;95.77;103024.28;5028258;28;20056;-74
2022/11/12 03:18:59;;;;;;;19.70;10.90;;;;;;;2.33;95.85;103019.81;5028877;28;20083;-74
2022/11/12 03:21:42;;;;;;;15.98;11.48;;;;;;;2.32;96.01;103017.13;5028721;28;20095;-74
2022/11/12 03:24:27;;;;;;;19.88;12.63;;;;;;;2.29;96.26;103013.59;5027442;28;20044;-73
2022/11/12 03:27:11;;;;;;;16.92;12.00;;;;;;;2.28;95.91;103025.22;5028827;28;20047;-73
2022/11/12 03:29:55;;;;;;;17.48;11.23;;;;;;;2.28;95.67;103022.53;5028830;28;20120;-74
2022/11/12 03:32:38;;;;;;;21.83;11.68;;;;;;;2.27;95.69;103025.22;5028493;28;20044;-74
2022/11/12 03:35:23;;;;;;;17.02;12.07;;;;;;;2.26;96.61;103027.00;5028729;28;20118;-74
2022/11/12 03:38:07;;;;;;;20.63;12.43;;;;;;;2.25;96.41;103021.66;5028653;28;20045;-74
2022/11/12 03:40:51;;;;;;;20.10;11.52;;;;;;;2.24;96.28;103031.50;5041472;28;20063;-75
2022/11/12 03:43:35;;;;;;;15.93;11.15;;;;;;;2.22;96.15;103027.91;5041494;28;20048;-74
2022/11/12 03:46:19;;;;;;;17.27;12.30;;;;;;;2.22;96.07;103029.69;5041565;28;20048;-74
2022/11/12 03:49:02;;;;;;;18.75;11.73;;;;;;;2.20;96.10;103032.41;5036374;28;20625;-75
2022/11/12 03:51:46;;;;;;;18.55;10.48;;;;;;;2.20;95.85;103032.41;5048453;28;20051;-74
2022/11/12 03:54:30;;;;;;;17.50;11.07;;;;;;;2.21;96.36;103031.50;5048380;28;20052;-74
2022/11/12 03:57:14;;;;;;;18.02;10.90;;;;;;;2.21;96.40;103031.50;5031681;28;20052;-74
2022/11/12 03:59:58;;;;;;;17.73;10.85;;;;;;;2.21;96.26;103031.50;5037219;28;20057;-74
2022/11/12 04:02:42;;;;;;;16.90;10.30;;;;;;;2.24;96.76;103039.56;5033745;28;20488;-74
2022/11/12 04:08:35;;;;;;;;;;;;;;;2.32;96.53;103041.31;5052636;28;20087;-75
2022/11/12 04:11:19;;;;;;;17.33;10.70;;;;;;;2.31;96.94;103027.00;5032665;28;19923;-75
2022/11/12 04:14:03;;;;;;;16.08;10.07;;;;;;;2.27;97.50;103009.09;5032630;28;20048;-74
2022/11/12 04:22:52;;;;;;;16.15;10.77;;;;;;;2.24;97.43;103017.19;5032001;28;20451;-74
2022/11/12 04:30:14;;;;;;;18.38;11.10;;;;;;;2.26;98.24;103007.31;5039198;28;20101;-74
2022/11/12 04:31:45;;;;;;;20.27;11.15;;;;;;;2.24;98.31;102998.38;5034376;28;20111;-74
2022/11/12 04:34:28;;;;;;;17.95;10.23;;;;;;;2.21;98.12;102995.69;5031960;28;20044;-74
2022/11/12 04:37:12;;;;;;;16.48;9.93;;;;;;;2.21;97.91;103001.06;5032043;28;20159;-74
2022/11/12 04:44:58;;;;;;;15.45;10.07;;;;;;;2.19;97.21;102997.47;5032015;28;20045;-74
2022/11/12 04:46:05;;;;;;;16.92;9.45;;;;;;;2.16;97.22;103003.78;5040336;28;20060;-74
2022/11/12 04:48:49;;;;;;;17.15;10.05;;;;;;;2.16;97.12;103011.81;5030639;28;20139;-74
2022/11/12 04:54:35;;;;;;;14.10;8.98;;;;;;;2.14;97.07;102999.28;5031433;28;20059;-74
2022/11/12 04:57:19;;;;;;;14.85;10.13;;;;;;;2.14;97.43;102992.13;5031489;28;20056;-74
2022/11/12 05:00:04;;;;;;;14.48;9.45;;;;;;;2.13;97.55;102998.41;5031716;28;20144;-74
2022/11/12 05:02:49;;;;;;;14.75;9.85;;;;;;;2.10;97.01;102993.06;5032654;28;20148;-74
2022/11/12 05:05:33;;;;;;;15.45;10.45;;;;;;;2.08;97.03;102988.56;5050397;28;20048;-74
2022/11/12 05:08:16;;;;;;;17.33;9.48;;;;;;;2.00;97.48;102984.09;5048769;28;20215;-74
2022/11/12 05:11:00;;;;;;;13.13;8.75;;;;;;;1.96;96.65;102981.47;5031295;28;20060;-75
2022/11/12 05:13:45;;;;;;;13.98;9.20;;;;;;;1.94;96.47;102984.13;5029772;28;20049;-74
2022/11/12 05:16:29;;;;;;;14.85;8.98;;;;;;;1.93;96.42;102990.41;5029963;28;20259;-74
2022/11/12 05:19:13;;;;;;;14.55;9.55;;;;;;;1.92;97.03;102985.03;5031366;28;20060;-75
2022/11/12 05:22:06;;;;;;;17.23;9.98;;;;;;;1.89;97.22;102987.72;5031307;28;20064;-74
2022/11/12 05:24:50;;;;;;;15.10;9.80;;;;;;;1.88;97.69;102980.56;5030059;28;20444;-74
2022/11/12 05:27:35;;;;;;;13.95;8.82;;;;;;;1.88;97.14;102975.22;5030533;28;20060;-74
2022/11/12 05:30:19;;;;;;;16.25;10.07;;;;;;;1.90;98.00;102973.41;5030985;28;20048;-75
2022/11/12 05:33:03;;;;;;;12.95;8.70;;;;;;;1.87;97.28;102971.63;5030597;28;20048;-75
2022/11/12 05:35:46;;;;;;;13.98;9.07;;;;;;;1.85;97.19;102970.72;5029728;28;20048;-74
2022/11/12 05:38:30;;;;;;;16.38;8.45;;;;;;;1.85;97.10;102976.09;5030405;28;20047;-75
2022/11/12 05:41:14;;;;;;;16.50;9.50;;;;;;;1.85;96.85;102975.22;5030848;28;20059;-74
2022/11/12 05:43:58;;;;;;;13.13;8.55;;;;;;;1.82;96.84;102968.06;5031191;28;20098;-75
2022/11/12 05:46:42;;;;;;;17.33;9.50;;;;;;;1.83;96.94;102979.69;5030599;28;20052;-74
2022/11/12 05:49:26;;;;;;;16.08;8.50;;;;;;;1.82;96.54;102978.81;5030566;28;20052;-75
2022/11/12 05:52:10;;;;;;;14.57;9.60;;;;;;;1.81;96.59;102973.41;5030313;28;20052;-74
2022/11/12 05:54:54;;;;;;;15.15;8.23;;;;;;;1.81;96.29;102979.69;5029555;28;20048;-74
2022/11/12 05:57:38;;;;;;;15.60;9.05;;;;;;;1.83;97.01;102985.06;5030519;28;20044;-74
2022/11/12 06:00:22;;;;;;;14.68;9.30;;;;;;;1.85;97.59;102981.47;5030281;28;20115;-74
2022/11/12 06:03:10;;;;;;;16.15;9.90;;;;;;;1.90;98.12;102976.09;5030384;28;20060;-74
2022/11/12 06:05:55;;;;;;;16.35;9.88;;;;;;;1.91;98.09;102976.09;5028921;28;20079;-74
2022/11/12 06:08:39;;;;;;;16.83;10.52;;;;;;;1.90;98.61;102965.34;5029031;28;20081;-75
2022/11/12 06:11:23;;;;;;;15.40;9.07;;;;;;;1.92;98.23;102968.94;5046847;28;20060;-75
2022/11/12 06:14:07;;;;;;;15.48;9.60;;;;;;;1.91;98.13;102975.19;5039691;28;20550;-75
2022/11/12 06:16:50;;;;;;;16.95;9.50;;;;;;;1.91;98.14;102976.09;5044455;28;20052;-74
2022/11/12 06:19:34;;;;;;;15.70;9.07;;;;;;;1.90;97.93;102976.97;5044692;28;20463;-75
2022/11/12 06:22:18;;;;;;;15.70;9.48;;;;;;;1.90;98.23;102984.13;5039610;28;20056;-75
2022/11/12 06:25:03;;;;;;;18.30;10.18;;;;;;;1.92;99.10;102974.31;5032086;28;20102;-75
2022/11/12 06:27:47;;;;;;;15.60;9.43;;;;;;;1.88;98.78;102977.91;5029015;28;20064;-74
2022/11/12 06:30:31;;;;;;;16.30;9.73;;;;;;;1.87;98.70;102989.53;5029868;28;20158;-75
2022/11/12 06:33:15;;;;;;;17.83;9.43;;;;;;;1.84;98.47;102986.84;5029870;28;20087;-75
2022/11/12 06:36:04;;;;;;;15.65;8.80;;;;;;;1.81;98.31;102987.72;5030151;28;20044;-75
2022/11/12 06:38:48;;;;;;;13.77;7.75;;;;;;;1.78;97.84;102982.38;5029710;28;20048;-75
2022/11/12 06:41:32;;;;;;;13.23;8.45;;;;;;;1.78;97.69;102991.31;5036197;28;20047;-74
2022/11/12 06:44:16;;;;;;;13.85;8.38;;;;;;;1.76;97.64;102989.53;5037539;28;20055;-74
2022/11/12 06:47:00;;;;;;;15.90;9.45;;;;;;;1.72;97.93;102985.94;5037389;28;20068;-75
2022/11/12 06:49:44;;;;;;;12.93;7.70;;;;;;;1.73;98.06;102989.56;5044779;28;20450;-74
2022/11/12 06:52:28;;;;;;;16.38;8.57;;;;;;;1.70;97.71;102989.53;5036246;28;20095;-75
2022/11/12 06:55:12;;;;;;;16.35;8.15;;;;;;;1.71;97.67;102997.59;5038625;28;20103;-75
2022/11/12 06:57:56;;;;;;;13.65;8.20;;;;;;;1.72;97.40;102998.47;5037436;28;20138;-75
2022/11/12 07:00:40;;;;;;;15.50;8.95;;;;;;;1.72;97.54;103003.84;5030674;28;20416;-74
2022/11/12 07:03:24;;;;;;;11.55;8.00;;;;;;;1.76;97.65;103002.94;5028413;28;20146;-75
2022/11/12 07:06:11;;;;;;;12.85;7.53;;;;;;;1.76;97.50;103002.94;5043888;28;20527;-75
2022/11/12 07:08:55;;;;;;;18.60;9.07;;;;;;;1.82;98.03;103007.41;5036995;28;20052;-76
2022/11/12 07:11:39;;;;;;;20.60;8.93;;;;;;;1.82;97.76;102997.59;5039412;28;20095;-75
2022/11/12 07:14:23;;;;;;;16.02;8.85;;;;;;;1.87;97.75;102997.59;5038891;28;20082;-75
2022/11/12 07:17:07;;;;;;;17.75;9.10;;;;;;;1.91;98.00;102999.34;5037272;28;20045;-75
2022/11/12 07:19:51;;;;;;;16.67;9.13;;;;;;;1.95;98.46;102995.75;5033707;28;20040;-75
2022/11/12 07:22:34;;;;;;;16.08;8.90;;;;;;;1.94;98.38;102992.19;5036802;28;20087;-75
2022/11/12 07:25:19;;;;;;;15.93;9.05;;;;;;;1.98;98.40;103002.00;5037010;28;20039;-74
2022/11/12 07:28:03;;;;;;;17.90;9.52;;;;;;;2.02;97.91;103002.91;5033236;28;20045;-75
2022/11/12 07:30:53;;;;;;;15.10;8.90;;;;;;;2.03;98.04;102994.84;5028909;28;20044;-74
2022/11/12 07:33:37;;;;;;;13.52;8.43;;;;;;;2.06;98.26;102993.97;5034144;28;20552;-75
2022/11/12 07:36:21;;;;;;;16.17;9.13;;;;;;;2.13;98.38;103000.19;5028819;28;20459;-75
2022/11/12 07:39:06;;;;;;;13.60;8.25;;;;;;;2.16;98.28;103003.78;5028360;28;20052;-74
2022/11/12 07:41:50;;;;;;;12.75;8.57;;;;;;;2.19;98.47;103000.16;5027792;28;20091;-75
2022/11/12 07:44:34;;;;;;;18.10;9.00;;;;;;;2.24;98.64;103004.66;5038394;28;20044;-74
2022/11/12 07:47:18;;;;;;;16.73;9.15;;;;;;;2.28;98.83;103010.88;5034746;28;20087;-74
2022/11/12 07:50:02;;;;;;;15.68;9.07;;;;;;;2.33;99.28;103005.50;5027808;28;20119;-75
2022/11/12 07:52:45;;;;;;;15.65;9.60;;;;;;;2.39;99.45;103010.88;5028343;28;20830;-75
2022/11/12 07:55:29;;;;;;;15.68;8.93;;;;;;;2.45;99.60;103011.72;5033292;28;20064;-74
2022/11/12 07:58:13;;;;;;;14.05;8.80;;;;;;;2.49;99.48;103012.59;5036422;28;20099;-75
2022/11/12 08:01:05;;;;;;;16.17;9.00;;;;;;;2.53;99.58;103011.69;5041606;28;20048;-74
2022/11/12 08:03:49;;;;;;;17.50;9.27;;;;;;;2.62;100.00;103013.47;5046823;28;20103;-74
2022/11/12 08:06:34;;;;;;;22.60;10.25;;;;;;;2.68;100.00;103027.75;5042540;28;20059;-74
2022/11/12 08:09:18;;;;;;;21.13;10.60;;;;;;;2.77;100.00;103026.81;5034884;28;20075;-74
2022/11/12 08:12:02;;;;;;;19.10;10.25;;;;;;;2.80;100.00;103025.00;5035384;28;20071;-74
2022/11/12 08:14:46;;;;;;;16.85;9.75;;;;;;;2.87;100.00;103030.34;5035579;28;20676;-74
2022/11/12 08:17:30;;;;;;;18.42;11.25;;;;;;;2.96;100.00;103035.69;5034924;28;20114;-74
2022/11/12 08:20:14;;;;;;;18.58;11.07;;;;;;;3.01;100.00;103028.47;5033323;28;20500;-75
2022/11/12 08:22:59;;;;;;;18.33;11.35;;;;;;;3.05;100.00;103028.44;5037395;28;20051;-75
2022/11/12 08:25:43;;;;;;;23.70;11.88;;;;;;;3.14;100.00;103034.69;5037882;28;20498;-74
2022/11/12 08:28:29;;;;;;;25.75;11.57;;;;;;;3.20;100.00;103034.63;5041357;28;20112;-74
2022/11/12 08:31:16;;;;;;;20.35;11.45;;;;;;;3.26;100.00;103030.13;5028284;28;20035;-74
2022/11/12 08:34:10;;;;;;;19.73;12.05;;;;;;;3.39;100.00;103036.28;5028387;28;20087;-75
2022/11/12 08:36:54;;;;;;;26.63;13.00;;;;;;;3.49;100.00;103029.03;5028514;28;20589;-75
2022/11/12 08:39:38;;;;;;;25.73;13.68;;;;;;;3.61;100.00;103030.75;5028807;28;20048;-75
2022/11/12 08:42:22;;;;;;;25.02;13.02;;;;;;;3.73;100.00;103027.94;5032563;28;20111;-74
2022/11/12 08:45:07;;;;;;;23.33;13.48;;;;;;;3.81;100.00;103028.75;5032140;28;20049;-75
2022/11/12 08:47:51;;;;;;;20.60;12.40;;;;;;;3.91;100.00;103034.94;5032113;28;20090;-74
2022/11/12 08:50:36;;;;;;;24.15;14.65;;;;;;;4.01;100.00;103037.56;5032155;28;20044;-75
2022/11/12 08:53:21;;;;;;;26.15;16.08;;;;;;;4.17;100.00;103046.38;5030740;28;20150;-75
2022/11/12 08:56:05;;;;;;;27.92;18.08;;;;;;;4.36;100.00;103047.06;5031784;28;20389;-74
2022/11/12 08:58:49;;;;;;;31.80;18.70;;;;;;;4.53;100.00;103044.19;5038428;28;20403;-74
2022/11/12 09:01:33;;;;;;;32.22;18.05;;;;;;;4.72;100.00;103042.16;5037206;28;20558;-74
2022/11/12 09:04:17;;;;;;;34.33;18.60;;;;;;;4.89;100.00;103033.81;5031736;28;20080;-75
2022/11/12 09:07:01;;;;;;;29.88;17.45;;;;;;;5.03;100.00;103032.72;5031503;28;20168;-75
2022/11/12 09:09:45;;;;;;;30.17;16.83;;;;;;;5.17;100.00;103031.63;5031316;28;20263;-75
2022/11/12 09:12:29;;;;;;;26.95;16.38;;;;;;;5.32;100.00;103032.31;5030475;28;20553;-75
2022/11/12 09:15:13;;;;;;;29.15;15.88;;;;;;;5.45;100.00;103026.69;5031657;28;20134;-75
2022/11/12 09:17:59;;;;;;;21.88;15.57;;;;;;;5.58;100.00;103036.38;5033460;28;20130;-74
2022/11/12 09:20:44;;;;;;;22.90;16.17;;;;;;;5.71;100.00;103037.97;5041036;28;20045;-75
2022/11/12 09:23:28;;;;;;;28.13;15.68;;;;;;;5.80;100.00;103031.53;5029926;28;20047;-74
2022/11/12 09:26:12;;;;;;;29.83;16.85;;;;;;;5.89;100.00;103043.06;5044511;28;20081;-74
2022/11/12 09:28:56;;;;;;;24.17;13.88;;;;;;;6.01;100.00;103041.06;5040744;28;20067;-74
2022/11/12 09:31:40;;;;;;;27.80;14.02;;;;;;;6.14;100.00;103023.72;5029529;28;20056;-74
2022/11/12 09:34:24;;;;;;;25.98;13.70;;;;;;;6.38;100.00;103035.88;5029891;28;20593;-74
2022/11/12 09:37:08;;;;;;;19.63;12.60;;;;;;;6.52;100.00;103031.06;5035829;28;20127;-74
2022/11/12 09:39:52;;;;;;;21.08;12.93;;;;;;;6.63;100.00;103026.34;5044512;28;20392;-75
2022/11/12 09:42:36;;;;;;;16.88;11.93;;;;;;;6.76;100.00;103034.19;5035891;28;20047;-75
2022/11/12 09:45:28;;;;;;;20.48;12.35;;;;;;;6.93;100.00;103039.25;5036087;28;20075;-75
2022/11/12 09:48:19;;;;;;;20.25;12.75;;;;;;;7.01;100.00;103032.75;5041129;28;20400;-75
2022/11/12 09:51:09;;;;;;;22.83;12.32;;;;;;;7.13;99.79;103040.59;5029588;28;20056;-74
2022/11/12 09:53:58;;;;;;;19.45;10.95;;;;;;;7.28;100.00;103041.16;5037555;28;20459;-75
2022/11/12 09:56:42;;;;;;;19.50;11.65;;;;;;;7.40;98.86;103039.03;5030314;28;20048;-75
2022/11/12 09:59:30;;;;;;;19.38;11.77;;;;;;;7.54;98.43;103032.41;5037543;28;20043;-75
2022/11/12 10:02:38;;;;;;;16.88;12.18;;;;;;;7.63;99.35;103034.88;5035468;28;20073;-75
2022/11/12 10:05:30;;;;;;;14.55;10.90;;;;;;;7.75;97.69;103034.56;5051249;28;20039;-75
2022/11/12 10:08:43;;;;;;;20.25;11.82;;;;;;;7.84;98.96;103034.34;5035476;28;20203;-75
2022/11/12 10:14:50;;;;;;;18.65;11.27;;;;;;;8.16;96.86;103022.66;5030186;28;20049;-75
2022/11/12 10:17:49;;;;;;;19.17;12.00;;;;;;;8.33;96.62;103026.69;5030234;28;20102;-75
2022/11/12 10:20:51;;;;;;;16.83;10.75;;;;;;;8.55;94.91;103022.47;5038293;28;20044;-75
2022/11/12 10:23:45;;;;;;;17.35;11.25;;;;;;;8.72;97.99;103018.38;5030714;28;20527;-75
2022/11/12 10:26:31;;;;;;;15.93;11.38;;;;;;;8.96;94.42;103016.75;5039494;28;20538;-75
2022/11/12 10:29:27;;;;;;;18.70;11.57;;;;;;;9.18;95.46;103012.41;5034251;28;20240;-74
2022/11/12 10:32:14;;;;;;;16.27;10.23;;;;;;;9.35;91.52;103015.47;5036659;28;20130;-75
2022/11/12 10:34:58;;;;;;;17.05;11.30;;;;;;;9.46;91.37;103012.41;5048293;28;20063;-74
2022/11/12 10:38:06;;;;;;;20.52;11.85;;;;;;;9.80;95.40;103006.75;5047023;28;20092;-74
2022/11/12 10:40:50;;;;;;;15.82;10.88;;;;;;;10.15;91.30;103010.03;5034209;28;20179;-74
2022/11/12 10:43:34;;;;;;;16.48;10.60;;;;;;;10.28;90.35;103005.97;5029116;28;20064;-74
2022/11/12 10:46:24;;;;;;;14.45;9.75;;;;;;;10.36;86.62;103000.25;5029815;28;20080;-74
2022/11/12 10:49:13;;;;;;;15.35;10.38;;;;;;;10.49;87.83;103001.53;5030102;28;20175;-74
2022/11/12 10:51:58;;;;;;;16.52;10.20;;;;;;;10.76;91.12;102996.00;5044473;28;20055;-74
2022/11/12 10:54:42;;;;;;;13.77;9.23;;;;;;;10.93;85.17;103004.41;5042550;28;20049;-74
2022/11/12 10:57:26;;;;;;;15.70;9.27;;;;;;;11.00;82.48;102992.31;5041282;28;20550;-74
2022/11/12 11:00:13;;;;;;;15.90;9.50;;;;;;;11.12;83.19;102997.28;5031733;28;20052;-74
2022/11/12 11:02:58;;;;;;;16.35;9.95;;;;;;;11.35;86.17;102993.63;5045871;28;20099;-74
2022/11/12 11:05:53;;;;;;;13.07;9.68;;;;;;;11.48;82.18;102984.00;5029299;28;20045;-74
2022/11/12 11:08:49;;;;;;;18.27;9.32;;;;;;;11.55;83.55;102987.31;5028569;28;20052;-74
2022/11/12 11:11:33;;;;;;;14.50;9.60;;;;;;;11.76;82.03;102980.09;5034962;28;20061;-74
2022/11/12 11:14:26;;;;;;;15.30;9.77;;;;;;;12.04;83.61;102984.38;5032418;28;20056;-74
2022/11/12 11:17:18;;;;;;;14.70;9.90;;;;;;;12.22;83.62;102984.44;5023334;28;20144;-74
2022/11/12 11:20:17;;;;;;;13.02;9.25;;;;;;;12.48;81.18;102979.63;5020080;28;20047;-74
2022/11/12 11:23:05;;;;;;;14.75;10.05;;;;;;;12.67;79.68;102980.53;5036612;28;20056;-75
2022/11/12 11:25:53;;;;;;;14.18;10.13;;;;;;;12.85;80.11;102981.50;5040426;28;20132;-74
2022/11/12 11:28:43;;;;;;;16.70;10.10;;;;;;;12.95;77.78;102971.88;5036722;28;20076;-73
2022/11/12 11:31:32;;;;;;;15.40;10.05;;;;;;;13.08;78.98;102974.94;5038830;28;20171;-74
2022/11/12 11:34:27;;;;;;;15.57;9.18;;;;;;;13.23;77.29;102973.31;5039746;28;20047;-73
2022/11/12 11:37:25;;;;;;;13.05;9.32;;;;;;;13.43;78.29;102966.84;5035206;28;20499;-75
2022/11/12 11:40:22;;;;;;;16.52;10.52;;;;;;;13.45;75.76;102962.19;5025625;28;20126;-74
2022/11/12 11:43:31;;;;;;;14.07;9.38;;;;;;;13.63;76.57;102972.19;5043330;28;20269;-73
2022/11/12 11:46:30;;;;;;;14.48;9.80;;;;;;;13.91;79.49;102957.09;5045166;28;20040;-73
2022/11/12 11:49:46;;;;;;;14.02;9.98;;;;;;;13.98;77.54;102955.78;5033574;28;20055;-74
2022/11/12 11:52:53;;;;;;;14.02;9.73;;;;;;;14.12;77.58;102947.72;5036289;28;20043;-73
2022/11/12 11:55:52;;;;;;;16.95;11.07;;;;;;;14.35;74.34;102935.50;5031824;28;20052;-73
2022/11/12 11:58:48;;;;;;;17.25;11.07;;;;;;;14.39;70.51;102937.13;5039231;28;20052;-73
2022/11/12 12:02:06;;;;;;;15.55;10.27;;;;;;;14.70;73.63;102935.47;5037460;28;20153;-73
2022/11/12 12:05:13;;;;;;;16.13;9.90;;;;;;;15.00;68.86;102938.28;5032046;28;20059;-73
2022/11/12 12:08:42;;;;;;;16.08;10.38;;;;;;;15.13;72.65;102931.13;5038303;28;20059;-74
2022/11/12 12:11:35;;;;;;;16.90;10.70;;;;;;;15.27;69.55;102917.50;5044508;28;20080;-74
2022/11/12 12:14:54;;;;;;;15.18;11.15;;;;;;;15.33;67.66;102916.22;5048180;28;20114;-73
2022/11/12 12:18:14;;;;;;;13.32;9.13;;;;;;;15.22;69.07;102905.03;4998687;28;20111;-75
2022/11/12 12:21:20;;;;;;;13.85;9.82;;;;;;;15.12;69.69;102907.44;5044191;28;20199;-73
2022/11/12 12:24:44;;;;;;;16.05;9.65;;;;;;;15.08;70.07;102903.09;5044842;28;20456;-73
2022/11/12 12:27:33;;;;;;;15.27;10.07;;;;;;;15.08;66.28;102903.09;5032796;28;20103;-73
2022/11/12 12:30:20;;;;;;;15.60;10.45;;;;;;;15.04;67.69;102905.13;5039863;28;20531;-73
2022/11/12 12:33:26;;;;;;;19.08;11.30;;;;;;;15.05;67.98;102900.53;5038567;28;20060;-72
2022/11/12 12:36:09;;;;;;;17.70;11.88;;;;;;;14.87;65.30;102896.09;5051621;28;20056;-73
2022/11/12 12:39:12;;;;;;;19.85;11.77;;;;;;;14.83;68.45;102886.28;5052124;28;20412;-72
2022/11/12 12:42:33;;;;;;;17.67;11.63;;;;;;;14.89;69.50;102888.69;5050743;28;20080;-73
2022/11/12 12:45:34;;;;;;;20.30;12.05;;;;;;;14.92;67.28;102883.94;5034263;28;20079;-73
2022/11/12 12:48:29;;;;;;;19.48;12.57;;;;;;;14.96;69.56;102887.34;5031713;28;20115;-72
2022/11/12 12:51:13;;;;;;;18.67;12.35;;;;;;;15.03;68.09;102884.19;5044058;28;20551;-73
2022/11/12 12:53:57;;;;;;;17.13;12.15;;;;;;;15.03;66.56;102881.44;5050488;28;20459;-72
2022/11/12 12:56:44;;;;;;;19.02;11.23;;;;;;;15.17;67.59;102880.63;5040526;28;20052;-72
2022/11/12 12:59:29;;;;;;;18.00;12.20;;;;;;;15.14;65.61;102875.31;5031801;28;20048;-72
2022/11/12 13:02:23;;;;;;;16.75;11.55;;;;;;;15.22;66.40;102869.38;5032928;28;20084;-72
2022/11/12 13:05:28;;;;;;;21.23;11.73;;;;;;;15.38;70.03;102867.47;5034967;28;20507;-72
2022/11/12 13:08:19;;;;;;;17.02;11.60;;;;;;;15.38;65.73;102866.59;5051241;28;20079;-73
2022/11/12 13:11:04;;;;;;;18.60;12.82;;;;;;;15.24;65.10;102872.91;5037114;28;20107;-74
2022/11/12 13:13:48;;;;;;;15.82;11.75;;;;;;;15.35;68.98;102866.78;5036414;28;20043;-72